sensor_id;sensor_type;location;lat;lon;timestamp;temperature;humidity
45339;DHT22;31071;51.478;5.710;2022-07-26T00:01:00;18.70;99.70
45339;DHT22;31071;51.478;5.710;2022-07-26T00:03:26;18.70;99.80
45339;DHT22;31071;51.478;5.710;2022-07-26T00:05:51;18.60;99.90
45339;DHT22;31071;51.478;5.710;2022-07-26T00:08:17;18.60;99.90
45339;DHT22;31071;51.478;5.710;2022-07-26T00:10:47;18.60;99.90
45339;DHT22;31071;51.478;5.710;2022-07-26T00:13:13;18.60;99.90
45339;DHT22;31071;51.478;5.710;2022-07-26T00:15:42;18.60;99.90
45339;DHT22;31071;51.478;5.710;2022-07-26T00:18:08;18.50;99.90
45339;DHT22;31071;51.478;5.710;2022-07-26T00:20:34;18.50;99.90
45339;DHT22;31071;51.478;5.710;2022-07-26T00:22:59;18.50;99.90
45339;DHT22;31071;51.478;5.710;2022-07-26T00:25:25;18.50;99.90
45339;DHT22;31071;51.478;5.710;2022-07-26T00:27:53;18.50;99.90
45339;DHT22;31071;51.478;5.710;2022-07-26T00:30:18;18.40;99.90
45339;DHT22;31071;51.478;5.710;2022-07-26T00:32:44;18.40;99.90
45339;DHT22;31071;51.478;5.710;2022-07-26T00:35:10;18.50;99.90
45339;DHT22;31071;51.478;5.710;2022-07-26T00:37:45;18.40;99.90
45339;DHT22;31071;51.478;5.710;2022-07-26T00:40:12;18.50;99.90
45339;DHT22;31071;51.478;5.710;2022-07-26T00:42:38;18.40;99.90
45339;DHT22;31071;51.478;5.710;2022-07-26T00:45:05;18.40;99.90
45339;DHT22;31071;51.478;5.710;2022-07-26T00:47:32;18.40;99.90
45339;DHT22;31071;51.478;5.710;2022-07-26T00:49:58;18.30;99.90
45339;DHT22;31071;51.478;5.710;2022-07-26T00:52:23;18.40;99.90
45339;DHT22;31071;51.478;5.710;2022-07-26T00:54:50;18.40;99.90
45339;DHT22;31071;51.478;5.710;2022-07-26T00:57:20;18.40;99.90
45339;DHT22;31071;51.478;5.710;2022-07-26T00:59:46;18.30;99.90
45339;DHT22;31071;51.478;5.710;2022-07-26T01:02:12;18.30;99.90
45339;DHT22;31071;51.478;5.710;2022-07-26T01:04:37;18.40;99.90
45339;DHT22;31071;51.478;5.710;2022-07-26T01:07:03;18.40;99.90
45339;DHT22;31071;51.478;5.710;2022-07-26T01:09:29;18.40;99.90
45339;DHT22;31071;51.478;5.710;2022-07-26T01:11:55;18.50;99.90
45339;DHT22;31071;51.478;5.710;2022-07-26T01:14:22;18.50;99.90
45339;DHT22;31071;51.478;5.710;2022-07-26T01:16:48;18.40;99.90
45339;DHT22;31071;51.478;5.710;2022-07-26T01:19:14;18.40;99.90
45339;DHT22;31071;51.478;5.710;2022-07-26T01:21:40;18.30;99.90
45339;DHT22;31071;51.478;5.710;2022-07-26T01:24:06;18.40;99.90
45339;DHT22;31071;51.478;5.710;2022-07-26T01:26:32;18.30;99.90
45339;DHT22;31071;51.478;5.710;2022-07-26T01:28:57;18.30;99.90
45339;DHT22;31071;51.478;5.710;2022-07-26T01:31:23;18.30;99.90
45339;DHT22;31071;51.478;5.710;2022-07-26T01:33:49;18.30;99.90
45339;DHT22;31071;51.478;5.710;2022-07-26T01:36:15;18.30;99.90
45339;DHT22;31071;51.478;5.710;2022-07-26T01:38:41;18.30;99.90
45339;DHT22;31071;51.478;5.710;2022-07-26T01:41:07;18.30;99.90
45339;DHT22;31071;51.478;5.710;2022-07-26T01:43:33;18.30;99.90
45339;DHT22;31071;51.478;5.710;2022-07-26T01:45:58;18.40;99.90
45339;DHT22;31071;51.478;5.710;2022-07-26T01:48:24;18.40;99.90
45339;DHT22;31071;51.478;5.710;2022-07-26T01:50:50;18.30;99.90
45339;DHT22;31071;51.478;5.710;2022-07-26T01:53:15;18.40;99.90
45339;DHT22;31071;51.478;5.710;2022-07-26T01:55:41;18.40;99.90
45339;DHT22;31071;51.478;5.710;2022-07-26T01:58:06;18.50;99.90
45339;DHT22;31071;51.478;5.710;2022-07-26T02:00:32;18.50;99.90
45339;DHT22;31071;51.478;5.710;2022-07-26T02:02:59;18.40;99.90
45339;DHT22;31071;51.478;5.710;2022-07-26T02:05:25;18.40;99.90
45339;DHT22;31071;51.478;5.710;2022-07-26T02:07:53;18.50;99.90
45339;DHT22;31071;51.478;5.710;2022-07-26T02:10:19;18.50;99.90
45339;DHT22;31071;51.478;5.710;2022-07-26T02:12:44;18.50;99.90
45339;DHT22;31071;51.478;5.710;2022-07-26T02:15:11;18.50;99.90
45339;DHT22;31071;51.478;5.710;2022-07-26T02:17:37;18.50;99.90
45339;DHT22;31071;51.478;5.710;2022-07-26T02:20:04;18.50;99.90
45339;DHT22;31071;51.478;5.710;2022-07-26T02:22:30;18.40;99.90
45339;DHT22;31071;51.478;5.710;2022-07-26T02:24:55;18.40;99.90
45339;DHT22;31071;51.478;5.710;2022-07-26T02:27:21;18.40;99.90
45339;DHT22;31071;51.478;5.710;2022-07-26T02:29:46;18.40;99.90
45339;DHT22;31071;51.478;5.710;2022-07-26T02:32:12;18.40;99.90
45339;DHT22;31071;51.478;5.710;2022-07-26T02:34:38;18.40;99.90
45339;DHT22;31071;51.478;5.710;2022-07-26T02:37:04;18.30;99.90
45339;DHT22;31071;51.478;5.710;2022-07-26T02:39:29;18.30;99.90
45339;DHT22;31071;51.478;5.710;2022-07-26T02:41:56;18.30;99.90
45339;DHT22;31071;51.478;5.710;2022-07-26T02:44:23;18.30;99.90
45339;DHT22;31071;51.478;5.710;2022-07-26T02:46:50;18.40;99.90
45339;DHT22;31071;51.478;5.710;2022-07-26T02:49:15;18.40;99.90
45339;DHT22;31071;51.478;5.710;2022-07-26T02:51:41;18.30;99.90
45339;DHT22;31071;51.478;5.710;2022-07-26T02:54:07;18.40;99.90
45339;DHT22;31071;51.478;5.710;2022-07-26T02:56:32;18.40;99.90
45339;DHT22;31071;51.478;5.710;2022-07-26T02:58:58;18.40;99.90
45339;DHT22;31071;51.478;5.710;2022-07-26T03:01:24;18.30;99.90
45339;DHT22;31071;51.478;5.710;2022-07-26T03:03:49;18.30;99.90
45339;DHT22;31071;51.478;5.710;2022-07-26T03:06:15;18.40;99.90
45339;DHT22;31071;51.478;5.710;2022-07-26T03:08:40;18.40;99.90
45339;DHT22;31071;51.478;5.710;2022-07-26T03:11:06;18.30;99.90
45339;DHT22;31071;51.478;5.710;2022-07-26T03:13:32;18.30;99.90
45339;DHT22;31071;51.478;5.710;2022-07-26T03:15:58;18.30;99.90
45339;DHT22;31071;51.478;5.710;2022-07-26T03:18:23;18.30;99.90
45339;DHT22;31071;51.478;5.710;2022-07-26T03:20:49;18.30;99.90
45339;DHT22;31071;51.478;5.710;2022-07-26T03:23:15;18.30;99.90
45339;DHT22;31071;51.478;5.710;2022-07-26T03:25:41;18.20;99.90
45339;DHT22;31071;51.478;5.710;2022-07-26T03:28:07;18.30;99.90
45339;DHT22;31071;51.478;5.710;2022-07-26T03:30:32;18.30;99.90
45339;DHT22;31071;51.478;5.710;2022-07-26T03:32:58;18.30;99.90
45339;DHT22;31071;51.478;5.710;2022-07-26T03:35:24;18.30;99.90
45339;DHT22;31071;51.478;5.710;2022-07-26T03:37:58;18.30;99.90
45339;DHT22;31071;51.478;5.710;2022-07-26T03:40:23;18.30;99.90
45339;DHT22;31071;51.478;5.710;2022-07-26T03:42:49;18.20;99.90
45339;DHT22;31071;51.478;5.710;2022-07-26T03:45:15;18.20;99.90
45339;DHT22;31071;51.478;5.710;2022-07-26T03:47:42;18.20;99.90
45339;DHT22;31071;51.478;5.710;2022-07-26T03:50:08;18.30;99.90
45339;DHT22;31071;51.478;5.710;2022-07-26T03:52:35;18.30;99.90
45339;DHT22;31071;51.478;5.710;2022-07-26T03:55:00;18.30;99.90
45339;DHT22;31071;51.478;5.710;2022-07-26T03:57:47;18.30;99.90
45339;DHT22;31071;51.478;5.710;2022-07-26T04:00:13;18.30;99.90
45339;DHT22;31071;51.478;5.710;2022-07-26T04:02:39;18.30;99.90
45339;DHT22;31071;51.478;5.710;2022-07-26T04:05:05;18.30;99.90
45339;DHT22;31071;51.478;5.710;2022-07-26T04:07:30;18.20;99.90
45339;DHT22;31071;51.478;5.710;2022-07-26T04:09:56;18.30;99.90
45339;DHT22;31071;51.478;5.710;2022-07-26T04:12:21;18.30;99.90
45339;DHT22;31071;51.478;5.710;2022-07-26T04:14:47;18.30;99.90
45339;DHT22;31071;51.478;5.710;2022-07-26T04:17:12;18.30;99.90
45339;DHT22;31071;51.478;5.710;2022-07-26T04:19:38;18.30;99.90
45339;DHT22;31071;51.478;5.710;2022-07-26T04:22:04;18.30;99.90
45339;DHT22;31071;51.478;5.710;2022-07-26T04:24:30;18.30;99.90
45339;DHT22;31071;51.478;5.710;2022-07-26T04:26:55;18.30;99.90
45339;DHT22;31071;51.478;5.710;2022-07-26T04:29:21;18.30;99.90
45339;DHT22;31071;51.478;5.710;2022-07-26T04:31:46;18.20;99.90
45339;DHT22;31071;51.478;5.710;2022-07-26T04:34:12;18.30;99.90
45339;DHT22;31071;51.478;5.710;2022-07-26T04:36:37;18.30;99.90
45339;DHT22;31071;51.478;5.710;2022-07-26T04:39:03;18.30;99.90
45339;DHT22;31071;51.478;5.710;2022-07-26T04:41:28;18.30;99.90
45339;DHT22;31071;51.478;5.710;2022-07-26T04:43:54;18.30;99.90
45339;DHT22;31071;51.478;5.710;2022-07-26T04:46:20;18.40;99.90
45339;DHT22;31071;51.478;5.710;2022-07-26T04:48:46;18.40;99.90
45339;DHT22;31071;51.478;5.710;2022-07-26T04:51:19;18.40;99.90
45339;DHT22;31071;51.478;5.710;2022-07-26T04:53:45;18.50;99.90
45339;DHT22;31071;51.478;5.710;2022-07-26T04:56:10;18.50;99.90
45339;DHT22;31071;51.478;5.710;2022-07-26T04:58:36;18.50;99.90
45339;DHT22;31071;51.478;5.710;2022-07-26T05:01:01;18.40;99.90
45339;DHT22;31071;51.478;5.710;2022-07-26T05:03:27;18.40;99.90
45339;DHT22;31071;51.478;5.710;2022-07-26T05:05:52;18.50;99.90
45339;DHT22;31071;51.478;5.710;2022-07-26T05:08:18;18.50;99.90
45339;DHT22;31071;51.478;5.710;2022-07-26T05:10:44;18.50;99.90
45339;DHT22;31071;51.478;5.710;2022-07-26T05:13:10;18.60;99.90
45339;DHT22;31071;51.478;5.710;2022-07-26T05:15:35;18.60;99.90
45339;DHT22;31071;51.478;5.710;2022-07-26T05:18:06;18.60;99.90
45339;DHT22;31071;51.478;5.710;2022-07-26T05:20:32;18.60;99.90
45339;DHT22;31071;51.478;5.710;2022-07-26T05:22:57;18.60;99.90
45339;DHT22;31071;51.478;5.710;2022-07-26T05:25:23;18.60;99.90
45339;DHT22;31071;51.478;5.710;2022-07-26T05:27:49;18.60;99.90
45339;DHT22;31071;51.478;5.710;2022-07-26T05:30:14;18.70;99.90
45339;DHT22;31071;51.478;5.710;2022-07-26T05:32:40;18.60;99.90
45339;DHT22;31071;51.478;5.710;2022-07-26T05:35:06;18.70;99.90
45339;DHT22;31071;51.478;5.710;2022-07-26T05:37:33;18.70;99.90
45339;DHT22;31071;51.478;5.710;2022-07-26T05:39:58;18.70;99.90
45339;DHT22;31071;51.478;5.710;2022-07-26T05:42:24;18.70;99.90
45339;DHT22;31071;51.478;5.710;2022-07-26T05:44:56;18.60;99.90
45339;DHT22;31071;51.478;5.710;2022-07-26T05:47:21;18.70;99.90
45339;DHT22;31071;51.478;5.710;2022-07-26T05:49:47;18.70;99.90
45339;DHT22;31071;51.478;5.710;2022-07-26T05:52:13;18.90;99.90
45339;DHT22;31071;51.478;5.710;2022-07-26T05:54:38;18.90;99.90
45339;DHT22;31071;51.478;5.710;2022-07-26T05:57:04;18.80;99.90
45339;DHT22;31071;51.478;5.710;2022-07-26T05:59:30;18.90;99.90
45339;DHT22;31071;51.478;5.710;2022-07-26T06:01:56;19.00;99.90
45339;DHT22;31071;51.478;5.710;2022-07-26T06:04:22;19.00;99.90
45339;DHT22;31071;51.478;5.710;2022-07-26T06:06:48;19.00;99.90
45339;DHT22;31071;51.478;5.710;2022-07-26T06:09:14;19.10;99.90
45339;DHT22;31071;51.478;5.710;2022-07-26T06:11:39;19.20;99.90
45339;DHT22;31071;51.478;5.710;2022-07-26T06:14:05;19.20;99.90
45339;DHT22;31071;51.478;5.710;2022-07-26T06:16:30;19.40;99.90
45339;DHT22;31071;51.478;5.710;2022-07-26T06:18:56;19.50;99.90
45339;DHT22;31071;51.478;5.710;2022-07-26T06:21:21;19.70;99.90
45339;DHT22;31071;51.478;5.710;2022-07-26T06:23:47;19.70;99.90
45339;DHT22;31071;51.478;5.710;2022-07-26T06:26:14;19.80;99.90
45339;DHT22;31071;51.478;5.710;2022-07-26T06:28:39;19.60;99.90
45339;DHT22;31071;51.478;5.710;2022-07-26T06:31:05;19.60;99.90
45339;DHT22;31071;51.478;5.710;2022-07-26T06:33:31;19.60;99.90
45339;DHT22;31071;51.478;5.710;2022-07-26T06:35:56;19.50;99.90
45339;DHT22;31071;51.478;5.710;2022-07-26T06:38:22;19.40;99.90
45339;DHT22;31071;51.478;5.710;2022-07-26T06:40:48;19.40;99.90
45339;DHT22;31071;51.478;5.710;2022-07-26T06:43:13;19.50;99.90
45339;DHT22;31071;51.478;5.710;2022-07-26T06:45:39;19.60;99.90
45339;DHT22;31071;51.478;5.710;2022-07-26T06:48:04;19.70;99.90
45339;DHT22;31071;51.478;5.710;2022-07-26T06:50:30;19.80;99.90
45339;DHT22;31071;51.478;5.710;2022-07-26T06:52:55;19.90;99.90
45339;DHT22;31071;51.478;5.710;2022-07-26T06:55:21;20.00;99.90
45339;DHT22;31071;51.478;5.710;2022-07-26T06:57:47;20.10;99.90
45339;DHT22;31071;51.478;5.710;2022-07-26T07:00:13;20.10;99.90
45339;DHT22;31071;51.478;5.710;2022-07-26T07:02:38;20.00;99.90
45339;DHT22;31071;51.478;5.710;2022-07-26T07:05:04;20.10;99.90
45339;DHT22;31071;51.478;5.710;2022-07-26T07:07:31;20.30;99.90
45339;DHT22;31071;51.478;5.710;2022-07-26T07:09:56;20.40;99.90
45339;DHT22;31071;51.478;5.710;2022-07-26T07:12:22;20.30;99.90
45339;DHT22;31071;51.478;5.710;2022-07-26T07:14:47;20.40;99.90
45339;DHT22;31071;51.478;5.710;2022-07-26T07:17:19;20.70;99.90
45339;DHT22;31071;51.478;5.710;2022-07-26T07:19:45;20.60;99.90
45339;DHT22;31071;51.478;5.710;2022-07-26T07:22:10;20.60;99.90
45339;DHT22;31071;51.478;5.710;2022-07-26T07:24:36;20.60;99.90
45339;DHT22;31071;51.478;5.710;2022-07-26T07:27:08;20.70;99.50
45339;DHT22;31071;51.478;5.710;2022-07-26T07:29:33;20.70;99.70
45339;DHT22;31071;51.478;5.710;2022-07-26T07:31:59;20.90;99.30
45339;DHT22;31071;51.478;5.710;2022-07-26T07:34:25;21.30;98.20
45339;DHT22;31071;51.478;5.710;2022-07-26T07:36:51;21.50;97.80
45339;DHT22;31071;51.478;5.710;2022-07-26T07:39:17;21.70;97.50
45339;DHT22;31071;51.478;5.710;2022-07-26T07:41:44;21.60;97.30
45339;DHT22;31071;51.478;5.710;2022-07-26T07:44:10;21.50;96.80
45339;DHT22;31071;51.478;5.710;2022-07-26T07:46:36;21.40;97.00
45339;DHT22;31071;51.478;5.710;2022-07-26T07:49:01;21.20;97.60
45339;DHT22;31071;51.478;5.710;2022-07-26T07:51:27;21.10;97.60
45339;DHT22;31071;51.478;5.710;2022-07-26T07:53:53;21.30;97.80
45339;DHT22;31071;51.478;5.710;2022-07-26T07:56:19;21.50;97.10
45339;DHT22;31071;51.478;5.710;2022-07-26T07:58:45;21.50;97.00
45339;DHT22;31071;51.478;5.710;2022-07-26T08:01:10;21.60;96.90
45339;DHT22;31071;51.478;5.710;2022-07-26T08:03:36;21.70;97.00
45339;DHT22;31071;51.478;5.710;2022-07-26T08:06:02;21.90;96.40
45339;DHT22;31071;51.478;5.710;2022-07-26T08:08:30;22.10;95.30
45339;DHT22;31071;51.478;5.710;2022-07-26T08:10:56;22.10;95.20
45339;DHT22;31071;51.478;5.710;2022-07-26T08:13:22;22.20;95.70
45339;DHT22;31071;51.478;5.710;2022-07-26T08:15:52;22.50;95.10
45339;DHT22;31071;51.478;5.710;2022-07-26T08:18:18;22.60;94.70
45339;DHT22;31071;51.478;5.710;2022-07-26T08:20:44;22.10;94.70
45339;DHT22;31071;51.478;5.710;2022-07-26T08:23:10;21.90;95.10
45339;DHT22;31071;51.478;5.710;2022-07-26T08:25:35;22.00;95.40
45339;DHT22;31071;51.478;5.710;2022-07-26T08:28:03;21.90;95.40
45339;DHT22;31071;51.478;5.710;2022-07-26T08:30:30;21.90;95.80
45339;DHT22;31071;51.478;5.710;2022-07-26T08:32:55;21.80;96.10
45339;DHT22;31071;51.478;5.710;2022-07-26T08:35:21;21.80;95.90
45339;DHT22;31071;51.478;5.710;2022-07-26T08:37:47;22.10;95.60
45339;DHT22;31071;51.478;5.710;2022-07-26T08:40:13;22.20;95.00
45339;DHT22;31071;51.478;5.710;2022-07-26T08:42:39;22.20;95.10
45339;DHT22;31071;51.478;5.710;2022-07-26T08:45:05;22.20;95.50
45339;DHT22;31071;51.478;5.710;2022-07-26T08:47:31;22.10;95.50
45339;DHT22;31071;51.478;5.710;2022-07-26T08:49:57;21.80;95.90
45339;DHT22;31071;51.478;5.710;2022-07-26T08:52:23;21.70;97.90
45339;DHT22;31071;51.478;5.710;2022-07-26T08:54:50;21.40;99.90
45339;DHT22;31071;51.478;5.710;2022-07-26T08:57:16;20.60;99.90
45339;DHT22;31071;51.478;5.710;2022-07-26T08:59:42;20.20;99.90
45339;DHT22;31071;51.478;5.710;2022-07-26T09:02:10;20.00;99.90
45339;DHT22;31071;51.478;5.710;2022-07-26T09:04:38;19.90;99.90
45339;DHT22;31071;51.478;5.710;2022-07-26T09:07:10;19.70;99.90
45339;DHT22;31071;51.478;5.710;2022-07-26T09:09:38;19.60;99.90
45339;DHT22;31071;51.478;5.710;2022-07-26T09:12:18;19.60;99.90
45339;DHT22;31071;51.478;5.710;2022-07-26T09:14:45;19.70;99.90
45339;DHT22;31071;51.478;5.710;2022-07-26T09:17:12;19.70;99.90
45339;DHT22;31071;51.478;5.710;2022-07-26T09:19:37;19.80;99.90
45339;DHT22;31071;51.478;5.710;2022-07-26T09:22:11;20.10;99.90
45339;DHT22;31071;51.478;5.710;2022-07-26T09:24:41;20.30;99.90
45339;DHT22;31071;51.478;5.710;2022-07-26T09:27:13;20.40;99.90
45339;DHT22;31071;51.478;5.710;2022-07-26T09:32:19;20.80;99.90
45339;DHT22;31071;51.478;5.710;2022-07-26T09:34:47;21.40;99.90
45339;DHT22;31071;51.478;5.710;2022-07-26T09:37:13;21.70;99.90
45339;DHT22;31071;51.478;5.710;2022-07-26T09:39:58;22.20;99.90
45339;DHT22;31071;51.478;5.710;2022-07-26T09:42:25;22.20;99.70
45339;DHT22;31071;51.478;5.710;2022-07-26T09:44:50;22.30;99.70
45339;DHT22;31071;51.478;5.710;2022-07-26T09:47:36;22.40;99.20
45339;DHT22;31071;51.478;5.710;2022-07-26T09:50:13;22.40;99.10
45339;DHT22;31071;51.478;5.710;2022-07-26T09:52:39;22.60;98.30
45339;DHT22;31071;51.478;5.710;2022-07-26T09:55:06;23.00;97.50
45339;DHT22;31071;51.478;5.710;2022-07-26T09:57:33;23.00;96.70
45339;DHT22;31071;51.478;5.710;2022-07-26T10:00:04;23.20;96.60
45339;DHT22;31071;51.478;5.710;2022-07-26T10:02:30;23.10;96.20
45339;DHT22;31071;51.478;5.710;2022-07-26T10:04:56;23.00;96.60
45339;DHT22;31071;51.478;5.710;2022-07-26T10:07:23;22.80;96.00
45339;DHT22;31071;51.478;5.710;2022-07-26T10:10:01;22.40;97.00
45339;DHT22;31071;51.478;5.710;2022-07-26T10:12:30;22.30;96.80
45339;DHT22;31071;51.478;5.710;2022-07-26T10:14:56;22.40;96.40
45339;DHT22;31071;51.478;5.710;2022-07-26T10:17:40;22.50;96.70
45339;DHT22;31071;51.478;5.710;2022-07-26T10:20:09;22.70;95.90
45339;DHT22;31071;51.478;5.710;2022-07-26T10:22:43;22.60;95.80
45339;DHT22;31071;51.478;5.710;2022-07-26T10:27:53;22.80;95.30
45339;DHT22;31071;51.478;5.710;2022-07-26T10:38:02;24.10;94.10
45339;DHT22;31071;51.478;5.710;2022-07-26T10:40:28;24.00;93.00
45339;DHT22;31071;51.478;5.710;2022-07-26T10:43:15;23.80;93.70
45339;DHT22;31071;51.478;5.710;2022-07-26T10:45:42;23.20;94.80
45339;DHT22;31071;51.478;5.710;2022-07-26T10:48:19;22.90;95.60
45339;DHT22;31071;51.478;5.710;2022-07-26T10:50:50;22.40;96.40
45339;DHT22;31071;51.478;5.710;2022-07-26T10:55:53;22.30;96.30
45339;DHT22;31071;51.478;5.710;2022-07-26T10:58:20;22.30;96.60
45339;DHT22;31071;51.478;5.710;2022-07-26T11:01:01;22.30;96.00
45339;DHT22;31071;51.478;5.710;2022-07-26T11:03:37;22.20;95.80
45339;DHT22;31071;51.478;5.710;2022-07-26T11:06:16;22.40;95.40
45339;DHT22;31071;51.478;5.710;2022-07-26T11:08:45;22.40;95.60
45339;DHT22;31071;51.478;5.710;2022-07-26T11:11:11;22.40;96.10
45339;DHT22;31071;51.478;5.710;2022-07-26T11:13:37;22.50;94.90
45339;DHT22;31071;51.478;5.710;2022-07-26T11:16:05;22.40;94.70
45339;DHT22;31071;51.478;5.710;2022-07-26T11:18:32;22.40;94.90
45339;DHT22;31071;51.478;5.710;2022-07-26T11:21:15;22.20;95.30
45339;DHT22;31071;51.478;5.710;2022-07-26T11:23:45;22.10;95.40
45339;DHT22;31071;51.478;5.710;2022-07-26T11:26:21;22.10;95.60
45339;DHT22;31071;51.478;5.710;2022-07-26T11:28:56;21.70;97.00
45339;DHT22;31071;51.478;5.710;2022-07-26T11:31:35;21.80;96.30
45339;DHT22;31071;51.478;5.710;2022-07-26T11:34:02;21.90;95.90
45339;DHT22;31071;51.478;5.710;2022-07-26T11:36:38;22.00;95.50
45339;DHT22;31071;51.478;5.710;2022-07-26T11:39:06;22.40;95.20
45339;DHT22;31071;51.478;5.710;2022-07-26T11:41:33;22.60;94.30
45339;DHT22;31071;51.478;5.710;2022-07-26T11:43:59;22.60;94.40
45339;DHT22;31071;51.478;5.710;2022-07-26T11:46:33;22.60;93.80
45339;DHT22;31071;51.478;5.710;2022-07-26T11:49:00;22.70;93.60
45339;DHT22;31071;51.478;5.710;2022-07-26T11:51:25;22.40;93.50
45339;DHT22;31071;51.478;5.710;2022-07-26T11:53:51;22.20;93.90
45339;DHT22;31071;51.478;5.710;2022-07-26T11:56:24;22.30;93.90
45339;DHT22;31071;51.478;5.710;2022-07-26T11:58:51;22.20;94.50
45339;DHT22;31071;51.478;5.710;2022-07-26T12:01:19;22.00;95.00
45339;DHT22;31071;51.478;5.710;2022-07-26T12:03:47;21.40;95.90
45339;DHT22;31071;51.478;5.710;2022-07-26T12:06:21;20.90;97.10
45339;DHT22;31071;51.478;5.710;2022-07-26T12:08:52;20.70;97.80
45339;DHT22;31071;51.478;5.710;2022-07-26T12:11:19;20.80;98.00
45339;DHT22;31071;51.478;5.710;2022-07-26T12:13:51;20.50;98.10
45339;DHT22;31071;51.478;5.710;2022-07-26T12:19:03;20.50;98.50
45339;DHT22;31071;51.478;5.710;2022-07-26T12:24:03;20.60;98.50
45339;DHT22;31071;51.478;5.710;2022-07-26T12:26:29;20.70;98.30
45339;DHT22;31071;51.478;5.710;2022-07-26T12:28:56;20.60;98.30
45339;DHT22;31071;51.478;5.710;2022-07-26T12:31:24;20.20;99.20
45339;DHT22;31071;51.478;5.710;2022-07-26T12:33:50;20.20;99.80
45339;DHT22;31071;51.478;5.710;2022-07-26T12:36:17;20.10;99.90
45339;DHT22;31071;51.478;5.710;2022-07-26T12:38:43;20.00;99.90
45339;DHT22;31071;51.478;5.710;2022-07-26T12:41:08;20.10;99.90
45339;DHT22;31071;51.478;5.710;2022-07-26T12:43:39;20.20;99.90
45339;DHT22;31071;51.478;5.710;2022-07-26T12:46:05;19.90;99.90
45339;DHT22;31071;51.478;5.710;2022-07-26T12:48:30;20.00;99.90
45339;DHT22;31071;51.478;5.710;2022-07-26T12:50:56;19.90;99.90
45339;DHT22;31071;51.478;5.710;2022-07-26T12:53:22;19.90;99.90
45339;DHT22;31071;51.478;5.710;2022-07-26T12:55:48;20.10;99.90
45339;DHT22;31071;51.478;5.710;2022-07-26T12:58:14;20.20;99.90
45339;DHT22;31071;51.478;5.710;2022-07-26T13:00:39;20.00;99.90
45339;DHT22;31071;51.478;5.710;2022-07-26T13:03:05;20.20;99.90
45339;DHT22;31071;51.478;5.710;2022-07-26T13:05:30;20.30;99.90
45339;DHT22;31071;51.478;5.710;2022-07-26T13:07:58;20.40;99.90
45339;DHT22;31071;51.478;5.710;2022-07-26T13:10:23;20.40;99.90
45339;DHT22;31071;51.478;5.710;2022-07-26T13:12:50;20.40;99.90
45339;DHT22;31071;51.478;5.710;2022-07-26T13:15:16;20.40;99.90
45339;DHT22;31071;51.478;5.710;2022-07-26T13:17:41;20.40;99.90
45339;DHT22;31071;51.478;5.710;2022-07-26T13:20:08;20.40;99.90
45339;DHT22;31071;51.478;5.710;2022-07-26T13:22:35;20.40;99.90
45339;DHT22;31071;51.478;5.710;2022-07-26T13:25:00;20.40;99.90
45339;DHT22;31071;51.478;5.710;2022-07-26T13:27:26;20.30;99.90
45339;DHT22;31071;51.478;5.710;2022-07-26T13:29:51;20.20;99.90
45339;DHT22;31071;51.478;5.710;2022-07-26T13:32:17;20.20;99.90
45339;DHT22;31071;51.478;5.710;2022-07-26T13:34:42;20.20;99.90
45339;DHT22;31071;51.478;5.710;2022-07-26T13:37:14;20.30;99.90
45339;DHT22;31071;51.478;5.710;2022-07-26T13:39:39;20.20;99.90
45339;DHT22;31071;51.478;5.710;2022-07-26T13:42:05;20.30;99.90
45339;DHT22;31071;51.478;5.710;2022-07-26T13:44:31;20.40;99.90
45339;DHT22;31071;51.478;5.710;2022-07-26T13:46:57;20.40;99.90
45339;DHT22;31071;51.478;5.710;2022-07-26T13:49:22;20.20;99.90
45339;DHT22;31071;51.478;5.710;2022-07-26T13:51:48;20.30;99.80
45339;DHT22;31071;51.478;5.710;2022-07-26T13:54:30;20.40;99.90
45339;DHT22;31071;51.478;5.710;2022-07-26T13:56:57;20.30;99.80
45339;DHT22;31071;51.478;5.710;2022-07-26T13:59:23;20.20;99.90
45339;DHT22;31071;51.478;5.710;2022-07-26T14:01:49;20.10;99.90
45339;DHT22;31071;51.478;5.710;2022-07-26T14:04:22;20.10;99.90
45339;DHT22;31071;51.478;5.710;2022-07-26T14:06:49;19.90;99.90
45339;DHT22;31071;51.478;5.710;2022-07-26T14:09:15;19.90;99.90
45339;DHT22;31071;51.478;5.710;2022-07-26T14:11:42;19.80;99.90
45339;DHT22;31071;51.478;5.710;2022-07-26T14:14:08;19.80;99.90
45339;DHT22;31071;51.478;5.710;2022-07-26T14:16:33;19.60;99.90
45339;DHT22;31071;51.478;5.710;2022-07-26T14:19:00;19.60;99.90
45339;DHT22;31071;51.478;5.710;2022-07-26T14:21:27;19.50;99.90
45339;DHT22;31071;51.478;5.710;2022-07-26T14:23:56;19.50;99.90
45339;DHT22;31071;51.478;5.710;2022-07-26T14:26:23;19.40;99.90
45339;DHT22;31071;51.478;5.710;2022-07-26T14:28:49;19.40;99.90
45339;DHT22;31071;51.478;5.710;2022-07-26T14:31:15;19.20;99.90
45339;DHT22;31071;51.478;5.710;2022-07-26T14:33:41;19.20;99.90
45339;DHT22;31071;51.478;5.710;2022-07-26T14:36:07;19.20;99.90
45339;DHT22;31071;51.478;5.710;2022-07-26T14:38:33;19.30;99.90
45339;DHT22;31071;51.478;5.710;2022-07-26T14:40:59;19.00;99.90
45339;DHT22;31071;51.478;5.710;2022-07-26T14:43:25;19.20;99.90
45339;DHT22;31071;51.478;5.710;2022-07-26T14:45:51;19.20;99.90
45339;DHT22;31071;51.478;5.710;2022-07-26T14:48:17;19.40;99.90
45339;DHT22;31071;51.478;5.710;2022-07-26T14:50:44;19.40;99.90
45339;DHT22;31071;51.478;5.710;2022-07-26T14:53:11;19.50;99.90
45339;DHT22;31071;51.478;5.710;2022-07-26T14:55:36;19.60;99.90
45339;DHT22;31071;51.478;5.710;2022-07-26T14:58:02;19.70;99.90
45339;DHT22;31071;51.478;5.710;2022-07-26T15:00:28;19.80;99.90
45339;DHT22;31071;51.478;5.710;2022-07-26T15:02:53;19.80;99.90
45339;DHT22;31071;51.478;5.710;2022-07-26T15:05:19;19.90;99.90
45339;DHT22;31071;51.478;5.710;2022-07-26T15:07:45;19.60;99.90
45339;DHT22;31071;51.478;5.710;2022-07-26T15:10:12;19.70;99.90
45339;DHT22;31071;51.478;5.710;2022-07-26T15:12:38;19.80;99.90
45339;DHT22;31071;51.478;5.710;2022-07-26T15:15:05;19.60;99.90
45339;DHT22;31071;51.478;5.710;2022-07-26T15:17:33;19.60;99.90
45339;DHT22;31071;51.478;5.710;2022-07-26T15:19:59;19.50;99.90
45339;DHT22;31071;51.478;5.710;2022-07-26T15:22:25;19.50;99.90
45339;DHT22;31071;51.478;5.710;2022-07-26T15:24:51;19.60;99.90
45339;DHT22;31071;51.478;5.710;2022-07-26T15:27:16;19.40;99.90
45339;DHT22;31071;51.478;5.710;2022-07-26T15:29:42;19.40;99.90
45339;DHT22;31071;51.478;5.710;2022-07-26T15:32:08;19.70;99.90
45339;DHT22;31071;51.478;5.710;2022-07-26T15:34:33;19.80;99.90
45339;DHT22;31071;51.478;5.710;2022-07-26T15:37:05;19.90;99.90
45339;DHT22;31071;51.478;5.710;2022-07-26T15:39:30;20.00;99.90
45339;DHT22;31071;51.478;5.710;2022-07-26T15:41:56;20.10;99.90
45339;DHT22;31071;51.478;5.710;2022-07-26T15:44:22;20.20;99.90
45339;DHT22;31071;51.478;5.710;2022-07-26T15:46:48;20.40;99.90
45339;DHT22;31071;51.478;5.710;2022-07-26T15:49:14;20.50;99.90